createdAt,value
2022-12-11T00:00:53.104Z,1.83
2022-12-11T00:03:55.538Z,1.10
2022-12-11T00:06:57.983Z,1.27
2022-12-11T00:10:00.165Z,0.63
2022-12-11T00:13:02.286Z,1.23
2022-12-11T00:16:04.952Z,1.13
2022-12-11T00:19:07.452Z,0.57
2022-12-11T00:22:09.513Z,1.33
2022-12-11T00:25:11.909Z,0.70
2022-12-11T00:28:18.966Z,1.50
2022-12-11T00:31:22.535Z,0.50
2022-12-11T00:34:24.677Z,0.80
2022-12-11T00:37:26.749Z,1.10
2022-12-11T00:40:28.830Z,2.27
2022-12-11T00:43:31.065Z,1.43
2022-12-11T00:46:34.203Z,0.80
2022-12-11T00:49:36.184Z,0.50
2022-12-11T00:52:39.030Z,0.87
2022-12-11T00:55:42.794Z,1.30
2022-12-11T00:58:45.961Z,0.60
2022-12-11T01:01:47.968Z,2.30
2022-12-11T01:04:50.130Z,1.50
2022-12-11T01:07:52.256Z,2.00
2022-12-11T01:11:16.781Z,0.73
2022-12-11T01:14:18.753Z,1.25
2022-12-11T01:17:20.858Z,0.63
2022-12-11T01:20:25.083Z,2.10
2022-12-11T01:23:27.071Z,1.20
2022-12-11T01:26:30.768Z,1.90
2022-12-11T01:29:33.129Z,3.10
2022-12-11T01:32:36.172Z,2.37
2022-12-11T01:35:40.214Z,1.60
2022-12-11T01:38:42.699Z,2.53
2022-12-11T01:41:44.826Z,2.20
2022-12-11T01:44:46.777Z,4.57
2022-12-11T01:48:01.010Z,2.30
2022-12-11T01:51:05.825Z,2.10
2022-12-11T01:54:11.806Z,4.00
2022-12-11T01:57:15.190Z,3.63
2022-12-11T02:00:18.313Z,0.85
2022-12-11T02:03:20.392Z,1.57
2022-12-11T02:06:35.737Z,2.92
2022-12-11T02:09:42.191Z,1.83
2022-12-11T02:12:47.225Z,2.93
2022-12-11T02:15:59.124Z,5.17
2022-12-11T02:19:37.601Z,5.32
2022-12-11T02:22:49.015Z,4.03
2022-12-11T02:26:06.081Z,4.43
2022-12-11T02:29:18.364Z,4.25
2022-12-11T02:32:26.385Z,5.32
2022-12-11T02:35:44.213Z,5.10
2022-12-11T02:38:50.821Z,5.05
2022-12-11T02:41:53.289Z,3.95
2022-12-11T02:44:58.117Z,2.53
2022-12-11T02:48:03.311Z,3.65
2022-12-11T02:51:07.870Z,4.28
2022-12-11T02:57:26.001Z,5.65
2022-12-11T03:00:28.330Z,6.28
2022-12-11T03:03:30.945Z,9.30
2022-12-11T03:06:42.080Z,6.55
2022-12-11T03:09:46.621Z,6.53
2022-12-11T03:16:11.648Z,5.57
2022-12-11T03:19:24.844Z,6.95
2022-12-11T03:22:40.927Z,6.22
2022-12-11T03:25:54.760Z,8.80
2022-12-11T03:29:07.744Z,7.85
2022-12-11T03:32:20.343Z,10.45
2022-12-11T03:35:36.034Z,8.18
2022-12-11T03:38:45.752Z,8.75
2022-12-11T03:41:50.684Z,10.77
2022-12-11T03:44:57.438Z,8.82
2022-12-11T03:48:02.698Z,10.93
2022-12-11T03:51:07.686Z,8.77
2022-12-11T03:54:11.436Z,9.65
2022-12-11T03:57:16.339Z,11.50
2022-12-11T04:00:20.660Z,11.38
2022-12-11T04:06:24.989Z,6.70
2022-12-11T04:09:26.939Z,10.15
2022-12-11T04:12:29.361Z,8.80
2022-12-11T04:15:31.849Z,11.95
2022-12-11T04:18:52.283Z,9.07
2022-12-11T04:22:13.652Z,10.40
2022-12-11T04:25:15.726Z,9.82
2022-12-11T04:28:19.338Z,14.13
2022-12-11T04:31:22.654Z,11.55
2022-12-11T04:34:24.905Z,12.68
2022-12-11T04:37:28.580Z,14.73
2022-12-11T04:40:30.665Z,17.52
2022-12-11T04:43:33.020Z,16.95
2022-12-11T04:46:35.226Z,16.30
2022-12-11T04:49:37.228Z,18.60
2022-12-11T04:52:39.242Z,13.45
2022-12-11T04:55:41.285Z,16.92
2022-12-11T04:58:44.724Z,16.60
2022-12-11T05:01:46.945Z,11.98
2022-12-11T05:04:49.323Z,11.45
2022-12-11T05:07:51.379Z,13.35
2022-12-11T05:11:01.719Z,10.82
2022-12-11T05:14:04.245Z,10.70
2022-12-11T05:17:06.357Z,9.20
2022-12-11T05:20:09.600Z,8.45
2022-12-11T05:23:11.645Z,5.90
2022-12-11T05:26:17.210Z,7.10
2022-12-11T05:29:19.279Z,7.25
2022-12-11T05:32:21.660Z,6.25
2022-12-11T05:35:23.775Z,9.57
2022-12-11T05:38:27.035Z,9.85
2022-12-11T05:41:32.663Z,9.15
2022-12-11T05:44:35.052Z,9.65
2022-12-11T05:47:37.162Z,10.82
2022-12-11T05:50:39.485Z,10.73
2022-12-11T05:53:43.086Z,9.07
2022-12-11T05:56:45.083Z,8.80
2022-12-11T05:59:49.638Z,8.35
2022-12-11T06:05:53.846Z,9.32
2022-12-11T06:08:58.272Z,10.50
2022-12-11T06:12:00.530Z,8.85
2022-12-11T06:15:02.600Z,7.13
2022-12-11T06:18:05.594Z,6.07
2022-12-11T06:21:21.788Z,7.18
2022-12-11T06:24:23.824Z,5.00
2022-12-11T06:27:25.813Z,4.75
2022-12-11T06:30:38.376Z,4.40
2022-12-11T06:33:41.681Z,4.72
2022-12-11T06:36:43.676Z,3.40
2022-12-11T06:39:45.680Z,4.53
2022-12-11T06:42:47.704Z,6.05
2022-12-11T06:45:49.936Z,6.43
2022-12-11T06:48:52.431Z,6.38
2022-12-11T06:51:54.449Z,8.52
2022-12-11T06:54:56.990Z,7.53
2022-12-11T06:57:58.971Z,9.07
2022-12-11T07:01:02.410Z,6.22
2022-12-11T07:04:04.744Z,7.83
2022-12-11T07:07:07.183Z,8.63
2022-12-11T07:10:10.179Z,6.32
2022-12-11T07:13:12.176Z,6.85
2022-12-11T07:16:16.727Z,5.00
2022-12-11T07:19:18.783Z,4.80
2022-12-11T07:22:20.946Z,6.68
2022-12-11T07:25:22.983Z,6.18
2022-12-11T07:28:25.045Z,8.02
2022-12-11T07:31:29.281Z,6.82
2022-12-11T07:34:31.411Z,6.05
2022-12-11T07:37:33.424Z,6.30
2022-12-11T07:40:35.600Z,5.32
2022-12-11T07:43:37.838Z,4.63
2022-12-11T07:46:40.726Z,2.63
2022-12-11T07:49:42.809Z,2.38
2022-12-11T07:52:44.925Z,3.83
2022-12-11T07:55:46.925Z,5.20
2022-12-11T07:58:49.154Z,4.43
2022-12-11T08:01:51.140Z,6.88
2022-12-11T08:04:53.216Z,4.60
2022-12-11T08:07:55.772Z,4.68
2022-12-11T08:11:04.866Z,4.25
2022-12-11T08:14:08.781Z,2.85
2022-12-11T08:17:10.807Z,4.10
2022-12-11T08:20:12.858Z,4.47
2022-12-11T08:23:14.973Z,4.40
2022-12-11T08:26:20.244Z,5.68
2022-12-11T08:29:22.546Z,5.43
2022-12-11T08:32:24.561Z,7.28
2022-12-11T08:35:27.318Z,6.60
2022-12-11T08:38:29.578Z,8.43
2022-12-11T08:41:31.763Z,7.60
2022-12-11T08:44:33.733Z,6.57
2022-12-11T08:47:35.853Z,7.50
2022-12-11T08:50:38.160Z,9.20
2022-12-11T08:53:40.611Z,7.63
2022-12-11T08:56:42.613Z,9.05
2022-12-11T08:59:44.613Z,7.55
2022-12-11T09:02:46.651Z,7.22
2022-12-11T09:05:48.729Z,8.10
2022-12-11T09:08:53.154Z,8.23
2022-12-11T09:11:55.736Z,8.27
2022-12-11T09:14:57.743Z,9.52
2022-12-11T09:17:59.787Z,7.68
2022-12-11T09:21:13.885Z,8.57
2022-12-11T09:24:16.072Z,7.72
2022-12-11T09:27:18.218Z,9.75
2022-12-11T09:30:20.272Z,8.68
2022-12-11T09:33:22.262Z,8.18
2022-12-11T09:36:24.516Z,7.43
2022-12-11T09:39:26.509Z,7.78
2022-12-11T09:42:37.515Z,6.18
2022-12-11T09:45:39.593Z,5.53
2022-12-11T09:48:49.418Z,8.43
2022-12-11T09:52:17.719Z,7.60
2022-12-11T09:55:25.407Z,9.93
2022-12-11T09:58:55.576Z,6.85
2022-12-11T10:02:28.622Z,6.18
2022-12-11T10:05:48.951Z,6.07
2022-12-11T10:09:08.926Z,7.25
2022-12-11T10:12:29.531Z,6.35
2022-12-11T10:15:37.676Z,5.03
2022-12-11T10:18:41.155Z,5.97
2022-12-11T10:21:44.009Z,7.20
2022-12-11T10:25:10.672Z,6.13
2022-12-11T10:28:15.838Z,6.20
2022-12-11T10:31:25.049Z,5.93
2022-12-11T10:34:44.747Z,6.88
2022-12-11T10:37:47.745Z,6.70
2022-12-11T10:41:11.288Z,7.85
2022-12-11T10:44:26.200Z,7.13
2022-12-11T10:47:29.194Z,8.80
2022-12-11T10:50:31.248Z,5.63
2022-12-11T10:53:35.089Z,8.75
2022-12-11T10:56:38.575Z,8.13
2022-12-11T10:59:49.406Z,7.57
2022-12-11T11:02:52.019Z,6.18
2022-12-11T11:06:18.012Z,6.50
2022-12-11T11:09:36.368Z,7.63
2022-12-11T11:12:41.517Z,7.30
2022-12-11T11:15:43.765Z,8.85
2022-12-11T11:18:57.729Z,7.47
2022-12-11T11:22:04.632Z,6.95
2022-12-11T11:25:15.958Z,6.07
2022-12-11T11:28:48.554Z,6.90
2022-12-11T11:31:50.623Z,7.88
2022-12-11T11:34:52.815Z,8.38
2022-12-11T11:37:58.198Z,7.03
2022-12-11T11:41:28.962Z,7.22
2022-12-11T11:45:10.422Z,8.57
2022-12-11T11:48:48.942Z,9.20
2022-12-11T11:52:10.727Z,7.60
2022-12-11T11:55:22.474Z,9.55
2022-12-11T11:58:33.373Z,9.27
2022-12-11T12:01:35.535Z,8.63
2022-12-11T12:04:37.687Z,7.63
2022-12-11T12:07:54.009Z,10.30
2022-12-11T12:11:03.727Z,8.45
2022-12-11T12:17:56.408Z,8.60
2022-12-11T12:21:17.457Z,8.73
2022-12-11T12:24:52.168Z,9.77
2022-12-11T12:28:06.279Z,8.80
2022-12-11T12:31:30.425Z,8.05
2022-12-11T12:34:51.002Z,7.80
2022-12-11T12:38:14.833Z,11.57
2022-12-11T12:41:44.353Z,11.55
2022-12-11T12:45:12.998Z,11.15
2022-12-11T12:48:15.663Z,10.85
2022-12-11T12:51:19.006Z,11.05
2022-12-11T12:54:22.192Z,12.17
2022-12-11T12:57:24.488Z,11.45
2022-12-11T13:00:31.507Z,9.88
2022-12-11T13:03:49.701Z,12.50
2022-12-11T13:06:52.542Z,9.35
2022-12-11T13:10:23.092Z,10.05
2022-12-11T13:13:54.465Z,10.75
2022-12-11T13:17:21.725Z,10.38
2022-12-11T13:20:27.060Z,13.48
2022-12-11T13:23:34.577Z,10.73
2022-12-11T13:26:37.536Z,10.35
2022-12-11T13:29:42.269Z,10.70
2022-12-11T13:33:16.093Z,10.23
2022-12-11T13:36:24.608Z,8.77
2022-12-11T13:39:30.274Z,11.07
2022-12-11T13:42:35.796Z,9.15
2022-12-11T13:45:48.577Z,9.68
2022-12-11T13:49:32.124Z,9.43
2022-12-11T13:52:34.215Z,10.07
2022-12-11T13:55:36.234Z,9.77
2022-12-11T13:58:39.934Z,11.48
2022-12-11T14:01:41.975Z,10.02
2022-12-11T14:04:44.827Z,11.70
2022-12-11T14:07:59.591Z,9.70
2022-12-11T14:11:02.391Z,12.02
2022-12-11T14:14:08.700Z,13.85
2022-12-11T14:17:15.722Z,13.02
2022-12-11T14:20:21.994Z,10.25
2022-12-11T14:23:29.232Z,14.82
2022-12-11T14:26:35.081Z,12.77
2022-12-11T14:29:37.157Z,12.88
2022-12-11T14:32:45.132Z,12.80
2022-12-11T14:35:48.838Z,12.48
2022-12-11T14:39:00.380Z,12.30
2022-12-11T14:42:10.675Z,9.95
2022-12-11T14:45:36.154Z,11.00
2022-12-11T14:48:45.933Z,10.50
2022-12-11T14:51:49.391Z,12.13
2022-12-11T14:55:00.921Z,11.40
2022-12-11T14:58:07.632Z,13.77
2022-12-11T15:01:28.361Z,13.10
2022-12-11T15:04:33.233Z,11.45
2022-12-11T15:07:37.467Z,12.63
2022-12-11T15:11:00.927Z,14.13
2022-12-11T15:14:05.486Z,13.05
2022-12-11T15:17:14.627Z,10.18
2022-12-11T15:20:28.266Z,13.07
2022-12-11T15:23:31.150Z,13.27
2022-12-11T15:26:44.866Z,14.82
2022-12-11T15:29:48.268Z,10.27
2022-12-11T15:32:50.267Z,12.48
2022-12-11T15:35:58.883Z,12.90
2022-12-11T15:39:01.748Z,12.38
2022-12-11T15:42:05.674Z,13.05
2022-12-11T15:45:20.504Z,12.90
2022-12-11T15:48:22.664Z,11.27
2022-12-11T15:51:25.426Z,12.18
2022-12-11T15:54:27.545Z,13.07
2022-12-11T15:57:29.632Z,12.68
2022-12-11T16:00:31.949Z,12.80
2022-12-11T16:03:34.137Z,10.25
2022-12-11T16:06:36.257Z,12.48
2022-12-11T16:09:38.877Z,14.48
2022-12-11T16:12:40.962Z,13.35
2022-12-11T16:15:47.764Z,13.45
2022-12-11T16:18:50.295Z,14.18
2022-12-11T16:21:53.002Z,12.15
2022-12-11T16:24:55.930Z,15.10
2022-12-11T16:28:00.109Z,14.27
2022-12-11T16:31:02.266Z,11.05
2022-12-11T16:34:04.392Z,13.95
2022-12-11T16:37:08.518Z,12.85
2022-12-11T16:40:11.309Z,14.23
2022-12-11T16:43:13.301Z,14.13
2022-12-11T16:46:19.431Z,13.13
2022-12-11T16:49:22.214Z,13.27
2022-12-11T16:52:24.275Z,13.30
2022-12-11T16:55:26.252Z,11.18
2022-12-11T16:58:28.321Z,14.60
2022-12-11T17:01:30.713Z,12.77
2022-12-11T17:04:33.806Z,15.20
2022-12-11T17:07:35.845Z,14.20
2022-12-11T17:10:41.969Z,11.93
2022-12-11T17:13:44.787Z,11.52
2022-12-11T17:16:47.318Z,14.73
2022-12-11T17:19:49.399Z,14.30
2022-12-11T17:22:51.478Z,13.32
2022-12-11T17:25:53.587Z,15.82
2022-12-11T17:28:57.852Z,13.68
2022-12-11T17:32:00.027Z,11.23
2022-12-11T17:35:03.041Z,16.38
2022-12-11T17:38:11.082Z,13.57
2022-12-11T17:41:20.064Z,13.82
2022-12-11T17:44:22.928Z,14.05
2022-12-11T17:47:25.092Z,14.55
2022-12-11T17:50:27.120Z,19.60
2022-12-11T17:53:29.341Z,14.63
2022-12-11T17:56:34.837Z,15.93
2022-12-11T17:59:36.913Z,13.85
2022-12-11T18:02:41.705Z,20.08
2022-12-11T18:05:49.045Z,18.48
2022-12-11T18:08:51.159Z,17.58
2022-12-11T18:11:53.774Z,15.20
2022-12-11T18:15:00.448Z,14.00
2022-12-11T18:18:03.044Z,15.65
2022-12-11T18:21:06.139Z,15.07
2022-12-11T18:24:09.038Z,17.02
2022-12-11T18:27:12.567Z,15.73
2022-12-11T18:33:17.949Z,15.15
2022-12-11T18:36:21.218Z,15.45
2022-12-11T18:39:23.631Z,16.97
2022-12-11T18:42:33.875Z,13.82
2022-12-11T18:45:39.106Z,18.30
2022-12-11T18:48:42.487Z,15.55
2022-12-11T18:51:44.671Z,15.85
2022-12-11T18:54:47.406Z,15.02
2022-12-11T18:57:50.006Z,18.10
2022-12-11T19:00:53.161Z,16.27
2022-12-11T19:04:05.341Z,17.48
2022-12-11T19:07:08.720Z,17.92
2022-12-11T19:10:12.040Z,16.08
2022-12-11T19:13:14.609Z,14.90
2022-12-11T19:16:22.366Z,15.80
2022-12-11T19:19:24.412Z,12.35
2022-12-11T19:22:26.460Z,16.75
2022-12-11T19:25:28.545Z,15.98
2022-12-11T19:28:30.860Z,13.07
2022-12-11T19:31:33.960Z,14.57
2022-12-11T19:34:36.128Z,15.85
2022-12-11T19:37:38.163Z,14.48
2022-12-11T19:40:44.656Z,14.90
2022-12-11T19:43:47.151Z,15.30
2022-12-11T19:46:49.418Z,17.67
2022-12-11T19:49:51.604Z,17.33
2022-12-11T19:52:54.045Z,17.92
2022-12-11T19:55:57.408Z,16.02
2022-12-11T19:59:00.891Z,17.20
2022-12-11T20:02:02.913Z,18.03
2022-12-11T20:05:05.426Z,15.73
2022-12-11T20:08:42.320Z,18.60
2022-12-11T20:11:32.925Z,18.92
2022-12-11T20:14:35.111Z,14.45
2022-12-11T20:17:38.145Z,17.25
2022-12-11T20:20:40.276Z,16.20
2022-12-11T20:23:42.947Z,15.15
2022-12-11T20:26:47.494Z,17.23
2022-12-11T20:29:49.716Z,14.88
2022-12-11T20:32:52.392Z,13.85
2022-12-11T20:35:54.480Z,14.82
2022-12-11T20:38:56.733Z,14.60
2022-12-11T20:42:04.756Z,15.88
2022-12-11T20:45:07.823Z,16.42
2022-12-11T20:48:09.945Z,16.95
2022-12-11T20:51:13.666Z,15.25
2022-12-11T20:54:15.772Z,16.67
2022-12-11T20:57:17.917Z,17.15
2022-12-11T21:00:20.079Z,17.92
2022-12-11T21:03:24.868Z,17.63
2022-12-11T21:06:35.721Z,20.25
2022-12-11T21:09:38.987Z,14.80
2022-12-11T21:12:41.196Z,17.13
2022-12-11T21:15:43.626Z,15.32
2022-12-11T21:18:46.794Z,17.45
2022-12-11T21:21:49.631Z,14.60
2022-12-11T21:24:51.881Z,16.95
2022-12-11T21:27:53.952Z,17.80
2022-12-11T21:31:03.357Z,20.60
2022-12-11T21:34:06.297Z,17.98
2022-12-11T21:37:08.506Z,21.00
2022-12-11T21:40:11.911Z,21.15
2022-12-11T21:43:13.948Z,20.08
2022-12-11T21:46:18.714Z,18.83
2022-12-11T21:49:20.938Z,18.95
2022-12-11T21:52:22.996Z,20.55
2022-12-11T21:55:25.482Z,18.50
2022-12-11T21:58:28.856Z,17.42
2022-12-11T22:01:41.098Z,17.92
2022-12-11T22:04:43.263Z,18.35
2022-12-11T22:07:45.485Z,16.92
2022-12-11T22:10:47.625Z,17.73
2022-12-11T22:13:49.738Z,17.60
2022-12-11T22:16:51.831Z,16.98
2022-12-11T22:19:54.196Z,14.65
2022-12-11T22:22:56.500Z,16.25
2022-12-11T22:25:59.028Z,17.10
2022-12-11T22:29:01.057Z,16.60
2022-12-11T22:32:04.047Z,17.52
2022-12-11T22:35:06.646Z,19.25
2022-12-11T22:38:09.169Z,17.52
2022-12-11T22:41:26.775Z,14.95
2022-12-11T22:44:28.808Z,14.48
2022-12-11T22:47:30.854Z,14.88
2022-12-11T22:50:32.963Z,16.23
2022-12-11T22:53:35.172Z,15.35
2022-12-11T22:56:37.458Z,16.77
2022-12-11T22:59:39.847Z,16.20
2022-12-11T23:02:43.218Z,16.52
2022-12-11T23:05:45.362Z,15.20
2022-12-11T23:08:47.453Z,16.15
2022-12-11T23:11:49.918Z,14.00
2022-12-11T23:14:52.127Z,14.52
2022-12-11T23:17:54.218Z,14.18
2022-12-11T23:20:56.278Z,14.55
2022-12-11T23:23:58.926Z,14.63
2022-12-11T23:27:01.964Z,14.07
2022-12-11T23:30:05.599Z,13.80
2022-12-11T23:33:08.510Z,12.93
2022-12-11T23:36:11.023Z,16.42
2022-12-11T23:39:13.212Z,14.68
2022-12-11T23:42:15.241Z,14.40
2022-12-11T23:45:17.399Z,13.57
2022-12-11T23:48:19.399Z,13.43
2022-12-11T23:51:25.731Z,13.27
2022-12-11T23:54:29.119Z,15.73
2022-12-11T23:57:31.303Z,15.57
